sensor_id;sensor_type;location;lat;lon;timestamp;pressure;altitude;pressure_sealevel;temperature;humidity
19761;BME280;10039;42.632;23.408;2023-09-07T00:02:04;95436.38;;;20.43;74.43
19761;BME280;10039;42.632;23.408;2023-09-07T00:04:48;95440.31;;;20.42;74.76
19761;BME280;10039;42.632;23.408;2023-09-07T00:10:26;95453.91;;;20.57;75.47
19761;BME280;10039;42.632;23.408;2023-09-07T00:13:34;95476.66;;;20.59;74.91
19761;BME280;10039;42.632;23.408;2023-09-07T00:19:08;95429.94;;;20.18;74.55
19761;BME280;10039;42.632;23.408;2023-09-07T00:21:40;95436.97;;;20.24;74.38
19761;BME280;10039;42.632;23.408;2023-09-07T00:24:17;95438.66;;;20.22;74.43
19761;BME280;10039;42.632;23.408;2023-09-07T00:27:17;95474.13;;;20.33;74.22
19761;BME280;10039;42.632;23.408;2023-09-07T00:30:06;95448.28;;;20.23;74.63
19761;BME280;10039;42.632;23.408;2023-09-07T00:32:47;95436.28;;;20.15;74.60
19761;BME280;10039;42.632;23.408;2023-09-07T00:35:16;95431.44;;;20.19;75.05
19761;BME280;10039;42.632;23.408;2023-09-07T00:37:56;95478.22;;;20.51;74.34
19761;BME280;10039;42.632;23.408;2023-09-07T00:41:11;95441.34;;;20.22;74.21
19761;BME280;10039;42.632;23.408;2023-09-07T00:43:51;95451.50;;;20.35;74.24
19761;BME280;10039;42.632;23.408;2023-09-07T00:46:47;95425.28;;;20.09;75.65
19761;BME280;10039;42.632;23.408;2023-09-07T00:49:37;95476.78;;;20.41;74.54
19761;BME280;10039;42.632;23.408;2023-09-07T00:55:10;95423.97;;;19.96;75.42
19761;BME280;10039;42.632;23.408;2023-09-07T01:00:43;95459.91;;;20.14;75.64
19761;BME280;10039;42.632;23.408;2023-09-07T01:03:31;95473.91;;;20.22;75.43
19761;BME280;10039;42.632;23.408;2023-09-07T01:06:39;95450.41;;;20.19;75.43
19761;BME280;10039;42.632;23.408;2023-09-07T01:09:24;95477.44;;;20.28;75.24
19761;BME280;10039;42.632;23.408;2023-09-07T01:12:22;95470.53;;;20.27;75.87
19761;BME280;10039;42.632;23.408;2023-09-07T01:15:00;95455.53;;;20.17;75.42
19761;BME280;10039;42.632;23.408;2023-09-07T01:18:07;95456.06;;;20.06;75.56
19761;BME280;10039;42.632;23.408;2023-09-07T01:20:51;95456.78;;;20.07;75.16
19761;BME280;10039;42.632;23.408;2023-09-07T01:23:40;95435.44;;;20.00;75.38
19761;BME280;10039;42.632;23.408;2023-09-07T01:32:25;95425.81;;;19.99;75.00
19761;BME280;10039;42.632;23.408;2023-09-07T01:34:57;95450.69;;;20.21;74.81
19761;BME280;10039;42.632;23.408;2023-09-07T01:37:26;95466.84;;;20.38;74.37
19761;BME280;10039;42.632;23.408;2023-09-07T01:39:55;95440.41;;;20.25;74.24
19761;BME280;10039;42.632;23.408;2023-09-07T01:42:40;95476.00;;;20.41;74.20
19761;BME280;10039;42.632;23.408;2023-09-07T01:45:11;95471.94;;;20.45;74.01
19761;BME280;10039;42.632;23.408;2023-09-07T01:47:37;95464.25;;;20.44;74.45
19761;BME280;10039;42.632;23.408;2023-09-07T01:50:22;95426.63;;;20.14;74.32
19761;BME280;10039;42.632;23.408;2023-09-07T01:53:03;95458.09;;;20.43;74.03
19761;BME280;10039;42.632;23.408;2023-09-07T01:55:33;95466.13;;;20.38;74.23
19761;BME280;10039;42.632;23.408;2023-09-07T01:57:59;95464.97;;;20.53;73.87
19761;BME280;10039;42.632;23.408;2023-09-07T02:00:36;95470.31;;;20.62;73.83
19761;BME280;10039;42.632;23.408;2023-09-07T02:03:02;95440.31;;;20.42;73.90
19761;BME280;10039;42.632;23.408;2023-09-07T02:05:29;95446.31;;;20.46;73.88
19761;BME280;10039;42.632;23.408;2023-09-07T02:07:57;95440.25;;;20.51;73.84
19761;BME280;10039;42.632;23.408;2023-09-07T02:10:33;95427.28;;;20.32;73.79
19761;BME280;10039;42.632;23.408;2023-09-07T02:13:04;95463.75;;;20.54;74.11
19761;BME280;10039;42.632;23.408;2023-09-07T02:15:30;95425.66;;;20.26;74.11
19761;BME280;10039;42.632;23.408;2023-09-07T02:18:08;95420.41;;;20.22;73.90
19761;BME280;10039;42.632;23.408;2023-09-07T02:20:41;95464.44;;;20.40;74.28
19761;BME280;10039;42.632;23.408;2023-09-07T02:29:18;95466.91;;;20.30;75.08
19761;BME280;10039;42.632;23.408;2023-09-07T02:32:02;95436.69;;;19.90;75.49
19761;BME280;10039;42.632;23.408;2023-09-07T02:34:52;95433.03;;;19.93;75.13
19761;BME280;10039;42.632;23.408;2023-09-07T02:37:23;95486.50;;;20.25;75.32
19761;BME280;10039;42.632;23.408;2023-09-07T02:39:59;95454.97;;;20.13;74.61
19761;BME280;10039;42.632;23.408;2023-09-07T02:42:43;95438.63;;;19.98;74.90
19761;BME280;10039;42.632;23.408;2023-09-07T02:45:24;95429.69;;;20.07;74.69
19761;BME280;10039;42.632;23.408;2023-09-07T02:48:04;95435.09;;;20.07;74.33
19761;BME280;10039;42.632;23.408;2023-09-07T02:51:03;95457.25;;;20.29;74.12
19761;BME280;10039;42.632;23.408;2023-09-07T02:56:27;95454.50;;;20.37;73.54
19761;BME280;10039;42.632;23.408;2023-09-07T02:59:07;95443.19;;;20.16;73.65
19761;BME280;10039;42.632;23.408;2023-09-07T03:01:35;95454.47;;;20.14;74.77
19761;BME280;10039;42.632;23.408;2023-09-07T03:04:15;95435.88;;;20.07;75.08
19761;BME280;10039;42.632;23.408;2023-09-07T03:06:57;95470.03;;;20.37;75.34
19761;BME280;10039;42.632;23.408;2023-09-07T03:09:40;95483.00;;;20.56;74.92
19761;BME280;10039;42.632;23.408;2023-09-07T03:12:27;95433.78;;;20.26;74.91
19761;BME280;10039;42.632;23.408;2023-09-07T03:15:13;95459.34;;;20.33;75.57
19761;BME280;10039;42.632;23.408;2023-09-07T03:18:11;95488.59;;;20.53;75.94
19761;BME280;10039;42.632;23.408;2023-09-07T03:20:55;95427.44;;;20.29;75.34
19761;BME280;10039;42.632;23.408;2023-09-07T03:26:45;95480.75;;;20.55;75.92
19761;BME280;10039;42.632;23.408;2023-09-07T03:29:10;95416.53;;;20.14;75.87
19761;BME280;10039;42.632;23.408;2023-09-07T03:34:51;95428.81;;;20.01;76.23
19761;BME280;10039;42.632;23.408;2023-09-07T03:37:20;95435.28;;;19.94;76.43
19761;BME280;10039;42.632;23.408;2023-09-07T03:40:29;95480.81;;;20.23;77.44
19761;BME280;10039;42.632;23.408;2023-09-07T03:43:05;95440.00;;;19.85;76.88
19761;BME280;10039;42.632;23.408;2023-09-07T03:45:51;95449.34;;;19.84;77.40
19761;BME280;10039;42.632;23.408;2023-09-07T03:48:39;95492.66;;;20.02;78.31
19761;BME280;10039;42.632;23.408;2023-09-07T03:51:34;95484.22;;;20.00;77.88
19761;BME280;10039;42.632;23.408;2023-09-07T03:54:07;95501.97;;;20.01;77.59
19761;BME280;10039;42.632;23.408;2023-09-07T03:56:35;95450.25;;;19.81;77.23
19761;BME280;10039;42.632;23.408;2023-09-07T03:59:04;95448.44;;;19.87;77.69
19761;BME280;10039;42.632;23.408;2023-09-07T04:01:32;95489.31;;;20.07;78.30
19761;BME280;10039;42.632;23.408;2023-09-07T04:03:58;95469.75;;;19.94;78.03
19761;BME280;10039;42.632;23.408;2023-09-07T04:06:30;95511.69;;;20.16;78.52
19761;BME280;10039;42.632;23.408;2023-09-07T04:09:04;95451.28;;;19.83;78.21
19761;BME280;10039;42.632;23.408;2023-09-07T04:11:49;95465.91;;;19.86;78.24
19761;BME280;10039;42.632;23.408;2023-09-07T04:14:24;95456.00;;;19.74;77.95
19761;BME280;10039;42.632;23.408;2023-09-07T04:17:02;95452.66;;;19.88;77.97
19761;BME280;10039;42.632;23.408;2023-09-07T04:19:42;95492.63;;;20.11;77.53
19761;BME280;10039;42.632;23.408;2023-09-07T04:22:25;95480.16;;;20.04;77.62
19761;BME280;10039;42.632;23.408;2023-09-07T04:25:02;95492.34;;;20.00;78.71
19761;BME280;10039;42.632;23.408;2023-09-07T04:27:30;95462.34;;;19.71;78.83
19761;BME280;10039;42.632;23.408;2023-09-07T04:30:00;95507.41;;;20.01;78.87
19761;BME280;10039;42.632;23.408;2023-09-07T04:32:32;95477.16;;;19.93;78.20
19761;BME280;10039;42.632;23.408;2023-09-07T04:35:07;95473.13;;;19.89;78.43
19761;BME280;10039;42.632;23.408;2023-09-07T04:37:44;95506.69;;;20.24;78.15
19761;BME280;10039;42.632;23.408;2023-09-07T04:40:14;95517.09;;;20.25;77.76
19761;BME280;10039;42.632;23.408;2023-09-07T04:42:40;95512.59;;;20.22;77.27
19761;BME280;10039;42.632;23.408;2023-09-07T04:45:09;95483.72;;;20.10;77.33
19761;BME280;10039;42.632;23.408;2023-09-07T04:47:39;95484.19;;;20.09;77.94
19761;BME280;10039;42.632;23.408;2023-09-07T04:50:13;95474.59;;;19.99;78.09
19761;BME280;10039;42.632;23.408;2023-09-07T04:52:45;95495.03;;;20.09;78.27
19761;BME280;10039;42.632;23.408;2023-09-07T04:55:48;95520.25;;;20.24;78.13
19761;BME280;10039;42.632;23.408;2023-09-07T05:03:01;95478.19;;;19.96;78.19
19761;BME280;10039;42.632;23.408;2023-09-07T05:05:50;95501.16;;;20.18;77.98
19761;BME280;10039;42.632;23.408;2023-09-07T05:08:35;95468.53;;;20.04;77.08
19761;BME280;10039;42.632;23.408;2023-09-07T05:11:14;95480.72;;;20.08;76.89
19761;BME280;10039;42.632;23.408;2023-09-07T05:14:13;95506.44;;;20.22;77.67
19761;BME280;10039;42.632;23.408;2023-09-07T05:16:59;95509.31;;;20.09;78.00
19761;BME280;10039;42.632;23.408;2023-09-07T05:19:54;95499.88;;;19.96;78.77
19761;BME280;10039;42.632;23.408;2023-09-07T05:23:00;95544.13;;;19.93;79.39
19761;BME280;10039;42.632;23.408;2023-09-07T05:26:08;95543.53;;;20.07;78.62
19761;BME280;10039;42.632;23.408;2023-09-07T05:28:50;95530.69;;;20.16;78.28
19761;BME280;10039;42.632;23.408;2023-09-07T05:31:39;95542.28;;;20.17;78.42
19761;BME280;10039;42.632;23.408;2023-09-07T05:34:21;95532.59;;;20.25;77.98
19761;BME280;10039;42.632;23.408;2023-09-07T05:36:58;95491.44;;;19.94;78.29
19761;BME280;10039;42.632;23.408;2023-09-07T05:39:50;95519.84;;;20.16;78.16
19761;BME280;10039;42.632;23.408;2023-09-07T05:42:44;95546.28;;;20.30;78.87
19761;BME280;10039;42.632;23.408;2023-09-07T05:45:20;95493.28;;;19.88;78.63
19761;BME280;10039;42.632;23.408;2023-09-07T05:47:54;95531.06;;;19.82;80.56
19761;BME280;10039;42.632;23.408;2023-09-07T05:50:29;95514.09;;;19.82;80.48
19761;BME280;10039;42.632;23.408;2023-09-07T05:53:10;95542.78;;;20.06;80.29
19761;BME280;10039;42.632;23.408;2023-09-07T05:55:58;95533.31;;;20.02;80.94
19761;BME280;10039;42.632;23.408;2023-09-07T05:58:33;95497.53;;;19.80;80.04
19761;BME280;10039;42.632;23.408;2023-09-07T06:07:12;95511.59;;;20.11;79.37
19761;BME280;10039;42.632;23.408;2023-09-07T06:09:41;95493.41;;;20.02;78.32
19761;BME280;10039;42.632;23.408;2023-09-07T06:12:20;95509.53;;;20.29;77.99
19761;BME280;10039;42.632;23.408;2023-09-07T06:15:07;95540.53;;;20.60;77.11
19761;BME280;10039;42.632;23.408;2023-09-07T06:17:53;95505.69;;;20.44;77.13
19761;BME280;10039;42.632;23.408;2023-09-07T06:24:25;95541.81;;;20.74;74.54
19761;BME280;10039;42.632;23.408;2023-09-07T06:27:34;95521.69;;;20.66;74.45
19761;BME280;10039;42.632;23.408;2023-09-07T06:30:53;95528.22;;;20.83;73.96
19761;BME280;10039;42.632;23.408;2023-09-07T06:46:20;95554.59;;;21.58;70.49
19761;BME280;10039;42.632;23.408;2023-09-07T06:49:25;95554.75;;;21.78;69.67
19761;BME280;10039;42.632;23.408;2023-09-07T06:55:43;95511.28;;;21.78;67.62
19761;BME280;10039;42.632;23.408;2023-09-07T06:58:48;95515.28;;;21.82;66.08
19761;BME280;10039;42.632;23.408;2023-09-07T07:02:00;95535.50;;;22.25;66.86
19761;BME280;10039;42.632;23.408;2023-09-07T07:05:10;95534.34;;;22.31;66.22
19761;BME280;10039;42.632;23.408;2023-09-07T07:08:04;95502.28;;;22.21;65.96
19761;BME280;10039;42.632;23.408;2023-09-07T07:10:44;95493.16;;;22.04;65.34
19761;BME280;10039;42.632;23.408;2023-09-07T07:16:50;95485.97;;;22.21;64.75
19761;BME280;10039;42.632;23.408;2023-09-07T07:19:44;95501.94;;;22.13;65.38
19761;BME280;10039;42.632;23.408;2023-09-07T07:22:44;95551.94;;;22.65;63.26
19761;BME280;10039;42.632;23.408;2023-09-07T07:25:40;95530.28;;;22.56;62.48
19761;BME280;10039;42.632;23.408;2023-09-07T07:28:35;95508.94;;;22.20;62.93
19761;BME280;10039;42.632;23.408;2023-09-07T07:31:46;95547.16;;;22.60;63.40
19761;BME280;10039;42.632;23.408;2023-09-07T07:34:32;95513.31;;;22.46;62.81
19761;BME280;10039;42.632;23.408;2023-09-07T07:37:20;95556.78;;;22.95;62.17
19761;BME280;10039;42.632;23.408;2023-09-07T07:40:06;95527.09;;;22.77;62.18
19761;BME280;10039;42.632;23.408;2023-09-07T07:42:57;95515.59;;;22.67;61.76
19761;BME280;10039;42.632;23.408;2023-09-07T07:45:46;95553.16;;;22.83;62.10
19761;BME280;10039;42.632;23.408;2023-09-07T07:48:34;95552.38;;;22.77;61.74
19761;BME280;10039;42.632;23.408;2023-09-07T07:51:14;95564.06;;;22.83;61.59
19761;BME280;10039;42.632;23.408;2023-09-07T07:54:07;95517.38;;;22.70;60.83
19761;BME280;10039;42.632;23.408;2023-09-07T07:56:41;95541.38;;;22.52;61.81
19761;BME280;10039;42.632;23.408;2023-09-07T07:59:16;95519.38;;;22.36;62.26
19761;BME280;10039;42.632;23.408;2023-09-07T08:01:46;95522.59;;;22.54;61.53
19761;BME280;10039;42.632;23.408;2023-09-07T08:04:30;95561.31;;;22.64;59.46
19761;BME280;10039;42.632;23.408;2023-09-07T08:07:01;95532.38;;;22.66;59.08
19761;BME280;10039;42.632;23.408;2023-09-07T08:09:30;95525.94;;;22.83;58.60
19761;BME280;10039;42.632;23.408;2023-09-07T08:11:57;95514.91;;;22.92;59.49
19761;BME280;10039;42.632;23.408;2023-09-07T08:14:26;95497.50;;;23.04;58.91
19761;BME280;10039;42.632;23.408;2023-09-07T08:16:53;95519.81;;;23.28;57.83
19761;BME280;10039;42.632;23.408;2023-09-07T08:19:19;95537.84;;;23.46;56.49
19761;BME280;10039;42.632;23.408;2023-09-07T08:21:45;95518.63;;;23.09;55.47
19761;BME280;10039;42.632;23.408;2023-09-07T08:24:11;95502.03;;;23.07;55.29
19761;BME280;10039;42.632;23.408;2023-09-07T08:26:38;95499.75;;;23.26;55.83
19761;BME280;10039;42.632;23.408;2023-09-07T08:29:04;95487.16;;;23.08;55.76
19761;BME280;10039;42.632;23.408;2023-09-07T08:31:41;95529.72;;;23.26;55.81
19761;BME280;10039;42.632;23.408;2023-09-07T08:34:21;95484.97;;;23.12;55.54
19761;BME280;10039;42.632;23.408;2023-09-07T08:37:13;95493.41;;;23.14;55.40
19761;BME280;10039;42.632;23.408;2023-09-07T08:40:14;95507.81;;;23.40;56.21
19761;BME280;10039;42.632;23.408;2023-09-07T08:43:03;95484.25;;;23.37;54.52
19761;BME280;10039;42.632;23.408;2023-09-07T08:45:30;95500.16;;;23.44;55.19
19761;BME280;10039;42.632;23.408;2023-09-07T08:47:59;95490.72;;;23.40;55.63
19761;BME280;10039;42.632;23.408;2023-09-07T08:50:26;95513.69;;;23.84;55.98
19761;BME280;10039;42.632;23.408;2023-09-07T08:52:58;95531.00;;;24.06;55.57
19761;BME280;10039;42.632;23.408;2023-09-07T08:55:25;95505.13;;;23.96;55.07
19761;BME280;10039;42.632;23.408;2023-09-07T08:58:05;95499.41;;;23.94;52.88
19761;BME280;10039;42.632;23.408;2023-09-07T09:00:49;95516.91;;;23.83;51.62
19761;BME280;10039;42.632;23.408;2023-09-07T09:03:31;95484.72;;;23.61;53.99
19761;BME280;10039;42.632;23.408;2023-09-07T09:06:21;95518.06;;;23.76;52.91
19761;BME280;10039;42.632;23.408;2023-09-07T09:12:50;95510.03;;;24.23;52.68
19761;BME280;10039;42.632;23.408;2023-09-07T09:15:45;95485.63;;;24.09;51.86
19761;BME280;10039;42.632;23.408;2023-09-07T09:18:52;95513.56;;;23.98;52.62
19761;BME280;10039;42.632;23.408;2023-09-07T09:21:35;95523.34;;;24.10;52.21
19761;BME280;10039;42.632;23.408;2023-09-07T09:24:10;95504.91;;;24.36;53.46
19761;BME280;10039;42.632;23.408;2023-09-07T09:29:49;95507.66;;;24.36;52.41
19761;BME280;10039;42.632;23.408;2023-09-07T09:32:25;95475.75;;;24.17;51.63
19761;BME280;10039;42.632;23.408;2023-09-07T09:34:56;95466.50;;;24.03;51.91
19761;BME280;10039;42.632;23.408;2023-09-07T09:37:28;95464.41;;;23.88;52.07
19761;BME280;10039;42.632;23.408;2023-09-07T09:40:01;95515.75;;;24.25;52.25
19761;BME280;10039;42.632;23.408;2023-09-07T09:42:43;95469.09;;;24.23;51.70
19761;BME280;10039;42.632;23.408;2023-09-07T09:45:12;95488.91;;;24.49;52.25
19761;BME280;10039;42.632;23.408;2023-09-07T09:47:51;95469.19;;;24.34;52.06
19761;BME280;10039;42.632;23.408;2023-09-07T09:50:45;95472.53;;;24.49;51.25
19761;BME280;10039;42.632;23.408;2023-09-07T09:53:32;95470.78;;;24.52;50.66
19761;BME280;10039;42.632;23.408;2023-09-07T09:56:03;95508.31;;;24.62;50.59
19761;BME280;10039;42.632;23.408;2023-09-07T09:58:31;95481.06;;;24.68;50.79
19761;BME280;10039;42.632;23.408;2023-09-07T10:03:59;95456.78;;;24.86;51.07
19761;BME280;10039;42.632;23.408;2023-09-07T10:06:49;95449.34;;;24.81;50.00
19761;BME280;10039;42.632;23.408;2023-09-07T10:09:57;95449.41;;;24.98;49.68
19761;BME280;10039;42.632;23.408;2023-09-07T10:12:39;95432.97;;;24.92;48.53
19761;BME280;10039;42.632;23.408;2023-09-07T10:18:43;95435.22;;;24.99;49.34
19761;BME280;10039;42.632;23.408;2023-09-07T10:21:14;95458.19;;;25.29;49.24
19761;BME280;10039;42.632;23.408;2023-09-07T10:23:41;95468.38;;;25.39;48.19
19761;BME280;10039;42.632;23.408;2023-09-07T10:26:25;95425.16;;;25.32;48.74
19761;BME280;10039;42.632;23.408;2023-09-07T10:29:01;95447.28;;;25.45;47.09
19761;BME280;10039;42.632;23.408;2023-09-07T10:31:40;95442.31;;;25.44;48.14
19761;BME280;10039;42.632;23.408;2023-09-07T10:34:39;95444.56;;;25.56;47.54
19761;BME280;10039;42.632;23.408;2023-09-07T10:37:47;95427.63;;;25.41;48.28
19761;BME280;10039;42.632;23.408;2023-09-07T10:40:47;95428.88;;;25.29;47.72
19761;BME280;10039;42.632;23.408;2023-09-07T10:44:14;95427.09;;;25.15;47.90
19761;BME280;10039;42.632;23.408;2023-09-07T10:47:15;95437.75;;;25.13;48.43
19761;BME280;10039;42.632;23.408;2023-09-07T10:49:48;95443.31;;;24.66;48.67
19761;BME280;10039;42.632;23.408;2023-09-07T10:52:21;95471.75;;;25.01;49.00
19761;BME280;10039;42.632;23.408;2023-09-07T10:55:00;95443.63;;;24.79;49.70
19761;BME280;10039;42.632;23.408;2023-09-07T10:57:32;95453.88;;;25.01;49.24
19761;BME280;10039;42.632;23.408;2023-09-07T11:00:14;95470.22;;;24.90;47.96
19761;BME280;10039;42.632;23.408;2023-09-07T11:02:55;95433.88;;;24.67;47.52
19761;BME280;10039;42.632;23.408;2023-09-07T11:05:35;95445.63;;;24.84;48.50
19761;BME280;10039;42.632;23.408;2023-09-07T11:10:54;95438.44;;;24.87;48.64
19761;BME280;10039;42.632;23.408;2023-09-07T11:13:50;95463.41;;;25.21;49.78
19761;BME280;10039;42.632;23.408;2023-09-07T11:16:40;95424.72;;;24.76;49.48
19761;BME280;10039;42.632;23.408;2023-09-07T11:19:32;95464.25;;;24.86;50.31
19761;BME280;10039;42.632;23.408;2023-09-07T11:22:14;95445.06;;;24.69;50.80
19761;BME280;10039;42.632;23.408;2023-09-07T11:24:52;95415.22;;;24.55;49.01
19761;BME280;10039;42.632;23.408;2023-09-07T11:30:26;95457.66;;;24.56;50.58
19761;BME280;10039;42.632;23.408;2023-09-07T11:33:08;95452.53;;;24.32;50.87
19761;BME280;10039;42.632;23.408;2023-09-07T11:35:48;95462.25;;;24.39;50.57
19761;BME280;10039;42.632;23.408;2023-09-07T11:38:18;95445.13;;;24.33;50.89
19761;BME280;10039;42.632;23.408;2023-09-07T11:41:07;95447.41;;;24.45;50.79
19761;BME280;10039;42.632;23.408;2023-09-07T11:43:56;95422.03;;;24.34;50.29
19761;BME280;10039;42.632;23.408;2023-09-07T11:46:25;95439.00;;;24.49;50.74
19761;BME280;10039;42.632;23.408;2023-09-07T11:49:19;95411.84;;;24.29;50.99
19761;BME280;10039;42.632;23.408;2023-09-07T11:52:07;95468.44;;;24.34;51.05
19761;BME280;10039;42.632;23.408;2023-09-07T11:54:33;95419.50;;;24.25;51.39
19761;BME280;10039;42.632;23.408;2023-09-07T11:57:12;95412.56;;;24.24;50.64
19761;BME280;10039;42.632;23.408;2023-09-07T12:00:14;95409.75;;;24.49;50.01
19761;BME280;10039;42.632;23.408;2023-09-07T12:05:34;95413.19;;;24.50;51.01
19761;BME280;10039;42.632;23.408;2023-09-07T12:08:23;95450.25;;;24.67;50.97
19761;BME280;10039;42.632;23.408;2023-09-07T12:10:55;95407.66;;;24.39;51.25
19761;BME280;10039;42.632;23.408;2023-09-07T12:13:33;95410.16;;;24.37;50.72
19761;BME280;10039;42.632;23.408;2023-09-07T12:16:11;95434.44;;;24.88;48.95
19761;BME280;10039;42.632;23.408;2023-09-07T12:18:46;95424.19;;;24.72;48.21
19761;BME280;10039;42.632;23.408;2023-09-07T12:21:19;95426.41;;;24.57;49.69
19761;BME280;10039;42.632;23.408;2023-09-07T12:23:58;95392.19;;;24.67;49.60
19761;BME280;10039;42.632;23.408;2023-09-07T12:26:49;95406.50;;;24.51;48.38
19761;BME280;10039;42.632;23.408;2023-09-07T12:29:56;95436.38;;;24.71;49.83
19761;BME280;10039;42.632;23.408;2023-09-07T12:32:48;95440.38;;;24.81;49.31
19761;BME280;10039;42.632;23.408;2023-09-07T12:35:49;95436.06;;;24.58;49.64
19761;BME280;10039;42.632;23.408;2023-09-07T12:38:41;95413.72;;;24.59;49.58
19761;BME280;10039;42.632;23.408;2023-09-07T12:44:26;95418.84;;;24.41;50.13
19761;BME280;10039;42.632;23.408;2023-09-07T12:46:58;95440.91;;;24.37;50.25
19761;BME280;10039;42.632;23.408;2023-09-07T12:49:24;95430.28;;;24.45;50.08
19761;BME280;10039;42.632;23.408;2023-09-07T12:51:53;95429.50;;;24.39;50.14
19761;BME280;10039;42.632;23.408;2023-09-07T12:54:19;95439.78;;;24.55;49.48
19761;BME280;10039;42.632;23.408;2023-09-07T12:56:48;95439.16;;;24.40;49.48
19761;BME280;10039;42.632;23.408;2023-09-07T12:59:14;95441.75;;;24.49;50.19
19761;BME280;10039;42.632;23.408;2023-09-07T13:04:57;95446.78;;;24.67;50.28
19761;BME280;10039;42.632;23.408;2023-09-07T13:08:03;95437.84;;;24.72;48.49
19761;BME280;10039;42.632;23.408;2023-09-07T13:10:39;95411.78;;;24.65;48.40
19761;BME280;10039;42.632;23.408;2023-09-07T13:13:20;95416.72;;;24.61;48.07
19761;BME280;10039;42.632;23.408;2023-09-07T13:15:50;95434.97;;;24.92;48.13
19761;BME280;10039;42.632;23.408;2023-09-07T13:18:22;95401.41;;;24.86;49.45
19761;BME280;10039;42.632;23.408;2023-09-07T13:20:55;95404.19;;;25.07;48.04
19761;BME280;10039;42.632;23.408;2023-09-07T13:23:36;95422.66;;;25.23;48.51
19761;BME280;10039;42.632;23.408;2023-09-07T13:26:02;95396.25;;;24.99;48.45
19761;BME280;10039;42.632;23.408;2023-09-07T13:28:35;95447.72;;;25.22;47.74
19761;BME280;10039;42.632;23.408;2023-09-07T13:31:11;95414.88;;;25.05;48.06
19761;BME280;10039;42.632;23.408;2023-09-07T13:33:44;95424.28;;;24.94;49.14
19761;BME280;10039;42.632;23.408;2023-09-07T13:36:10;95401.94;;;24.95;48.06
19761;BME280;10039;42.632;23.408;2023-09-07T13:38:43;95418.91;;;25.21;48.50
19761;BME280;10039;42.632;23.408;2023-09-07T13:41:29;95426.97;;;24.83;47.87
19761;BME280;10039;42.632;23.408;2023-09-07T13:43:55;95424.75;;;24.81;48.23
19761;BME280;10039;42.632;23.408;2023-09-07T13:46:37;95399.13;;;24.68;48.15
19761;BME280;10039;42.632;23.408;2023-09-07T13:49:17;95406.03;;;24.58;48.15
19761;BME280;10039;42.632;23.408;2023-09-07T13:51:50;95407.06;;;24.66;48.80
19761;BME280;10039;42.632;23.408;2023-09-07T13:54:16;95406.84;;;24.75;48.67
19761;BME280;10039;42.632;23.408;2023-09-07T13:56:41;95419.09;;;24.96;49.07
19761;BME280;10039;42.632;23.408;2023-09-07T13:59:10;95395.66;;;24.73;48.43
19761;BME280;10039;42.632;23.408;2023-09-07T14:01:36;95410.88;;;24.37;49.34
19761;BME280;10039;42.632;23.408;2023-09-07T14:04:03;95414.03;;;24.67;48.49
19761;BME280;10039;42.632;23.408;2023-09-07T14:06:29;95399.13;;;24.68;48.16
19761;BME280;10039;42.632;23.408;2023-09-07T14:08:54;95401.97;;;24.37;47.74
19761;BME280;10039;42.632;23.408;2023-09-07T14:11:25;95399.97;;;24.43;49.08
19761;BME280;10039;42.632;23.408;2023-09-07T14:16:32;95413.25;;;24.61;48.72
19761;BME280;10039;42.632;23.408;2023-09-07T14:18:59;95392.31;;;24.47;48.33
19761;BME280;10039;42.632;23.408;2023-09-07T14:21:35;95420.47;;;24.69;48.36
19761;BME280;10039;42.632;23.408;2023-09-07T14:24:07;95397.34;;;24.54;48.71
19761;BME280;10039;42.632;23.408;2023-09-07T14:26:33;95406.88;;;24.80;48.13
19761;BME280;10039;42.632;23.408;2023-09-07T14:28:59;95411.38;;;24.94;48.56
19761;BME280;10039;42.632;23.408;2023-09-07T14:31:25;95406.41;;;24.93;48.46
19761;BME280;10039;42.632;23.408;2023-09-07T14:33:51;95406.63;;;24.89;48.04
19761;BME280;10039;42.632;23.408;2023-09-07T14:36:17;95388.75;;;24.83;48.24
19761;BME280;10039;42.632;23.408;2023-09-07T14:38:42;95402.94;;;25.08;48.37
19761;BME280;10039;42.632;23.408;2023-09-07T14:41:26;95417.84;;;25.02;47.70
19761;BME280;10039;42.632;23.408;2023-09-07T14:43:53;95389.88;;;24.54;48.22
19761;BME280;10039;42.632;23.408;2023-09-07T14:46:19;95406.38;;;24.87;48.17
19761;BME280;10039;42.632;23.408;2023-09-07T14:48:48;95379.75;;;24.66;48.21
19761;BME280;10039;42.632;23.408;2023-09-07T14:51:14;95390.72;;;24.77;48.15
19761;BME280;10039;42.632;23.408;2023-09-07T14:53:43;95388.75;;;24.77;48.08
19761;BME280;10039;42.632;23.408;2023-09-07T14:56:09;95376.28;;;24.60;48.44
19761;BME280;10039;42.632;23.408;2023-09-07T14:58:35;95398.91;;;24.77;49.14
19761;BME280;10039;42.632;23.408;2023-09-07T15:01:02;95393.72;;;24.90;49.74
19761;BME280;10039;42.632;23.408;2023-09-07T15:03:29;95380.81;;;24.85;49.88
19761;BME280;10039;42.632;23.408;2023-09-07T15:05:54;95420.06;;;24.98;48.75
19761;BME280;10039;42.632;23.408;2023-09-07T15:08:20;95396.72;;;24.92;49.42
19761;BME280;10039;42.632;23.408;2023-09-07T15:10:58;95386.00;;;24.88;50.12
19761;BME280;10039;42.632;23.408;2023-09-07T15:13:39;95415.19;;;25.24;50.57
19761;BME280;10039;42.632;23.408;2023-09-07T15:16:05;95380.88;;;25.12;50.63
19761;BME280;10039;42.632;23.408;2023-09-07T15:18:34;95397.53;;;25.25;49.83
19761;BME280;10039;42.632;23.408;2023-09-07T15:21:00;95374.66;;;25.11;50.37
19761;BME280;10039;42.632;23.408;2023-09-07T15:23:26;95405.53;;;25.28;51.14
19761;BME280;10039;42.632;23.408;2023-09-07T15:25:52;95377.91;;;25.15;50.52
19761;BME280;10039;42.632;23.408;2023-09-07T15:28:18;95394.25;;;25.04;48.77
19761;BME280;10039;42.632;23.408;2023-09-07T15:30:49;95426.06;;;25.07;49.07
19761;BME280;10039;42.632;23.408;2023-09-07T15:33:16;95407.88;;;24.88;49.36